createdAt,value
2023-03-22T00:02:27.017Z,100.00
2023-03-22T00:04:54.018Z,100.00
2023-03-22T00:07:20.947Z,100.00
2023-03-22T00:09:47.790Z,100.00
2023-03-22T00:12:14.601Z,100.00
2023-03-22T00:14:41.434Z,100.00
2023-03-22T00:17:08.251Z,100.00
2023-03-22T00:19:35.032Z,100.00
2023-03-22T00:22:05.562Z,100.00
2023-03-22T00:24:32.929Z,100.00
2023-03-22T00:27:00.879Z,100.00
2023-03-22T00:29:27.730Z,100.00
2023-03-22T00:31:55.935Z,100.00
2023-03-22T00:34:22.780Z,100.00
2023-03-22T00:36:49.594Z,100.00
2023-03-22T00:39:16.348Z,100.00
2023-03-22T00:41:43.256Z,100.00
2023-03-22T00:44:10.333Z,100.00
2023-03-22T00:46:37.500Z,100.00
2023-03-22T00:49:04.356Z,100.00
2023-03-22T00:51:31.183Z,100.00
2023-03-22T00:53:57.926Z,100.00
2023-03-22T00:56:25.457Z,100.00
2023-03-22T00:58:52.230Z,100.00
2023-03-22T01:01:19.012Z,100.00
2023-03-22T01:03:49.696Z,100.00
2023-03-22T01:06:17.148Z,100.00
2023-03-22T01:08:44.117Z,100.00
2023-03-22T01:11:10.884Z,100.00
2023-03-22T01:13:39.287Z,100.00
2023-03-22T01:16:08.210Z,100.00
2023-03-22T01:18:36.161Z,100.00
2023-03-22T01:21:03.459Z,100.00
2023-03-22T01:23:30.658Z,100.00
2023-03-22T01:25:57.670Z,100.00
2023-03-22T01:28:26.987Z,100.00
2023-03-22T01:30:55.584Z,100.00
2023-03-22T01:33:22.804Z,100.00
2023-03-22T01:35:49.575Z,100.00
2023-03-22T01:38:16.518Z,100.00
2023-03-22T01:40:43.313Z,100.00
2023-03-22T01:43:15.634Z,100.00
2023-03-22T01:45:53.254Z,100.00
2023-03-22T01:48:26.458Z,100.00
2023-03-22T01:51:26.090Z,100.00
2023-03-22T01:54:00.387Z,100.00
2023-03-22T01:56:32.707Z,100.00
2023-03-22T01:59:01.068Z,100.00
2023-03-22T02:01:28.414Z,100.00
2023-03-22T02:04:16.768Z,100.00
2023-03-22T02:06:44.445Z,100.00
2023-03-22T02:09:14.195Z,100.00
2023-03-22T02:11:48.831Z,100.00
2023-03-22T02:14:55.396Z,100.00
2023-03-22T02:17:53.778Z,100.00
2023-03-22T02:21:19.866Z,100.00
2023-03-22T02:24:32.692Z,100.00
2023-03-22T02:27:29.708Z,100.00
2023-03-22T02:30:18.004Z,100.00
2023-03-22T02:33:00.612Z,100.00
2023-03-22T02:36:24.363Z,100.00
2023-03-22T02:39:21.499Z,100.00
2023-03-22T02:42:03.229Z,100.00
2023-03-22T02:44:52.575Z,100.00
2023-03-22T02:47:38.502Z,100.00
2023-03-22T02:50:37.609Z,100.00
2023-03-22T02:53:42.311Z,100.00
2023-03-22T02:56:34.462Z,100.00
2023-03-22T02:59:07.399Z,100.00
2023-03-22T03:01:46.028Z,100.00
2023-03-22T03:04:20.965Z,100.00
2023-03-22T03:06:52.141Z,100.00
2023-03-22T03:09:21.046Z,100.00
2023-03-22T03:11:51.715Z,100.00
2023-03-22T03:14:32.843Z,100.00
2023-03-22T03:16:59.506Z,100.00
2023-03-22T03:19:40.768Z,100.00
2023-03-22T03:22:13.314Z,100.00
2023-03-22T03:25:03.119Z,100.00
2023-03-22T03:27:49.790Z,100.00
2023-03-22T03:30:31.940Z,100.00
2023-03-22T03:33:09.223Z,100.00
2023-03-22T03:35:53.245Z,100.00
2023-03-22T03:38:26.968Z,100.00
2023-03-22T03:41:13.802Z,100.00
2023-03-22T03:43:42.727Z,100.00
2023-03-22T03:46:10.270Z,100.00
2023-03-22T03:48:42.457Z,100.00
2023-03-22T03:51:09.355Z,100.00
2023-03-22T03:53:36.272Z,100.00
2023-03-22T03:56:03.090Z,100.00
2023-03-22T03:58:30.702Z,100.00
2023-03-22T04:00:58.313Z,100.00
2023-03-22T04:03:25.365Z,100.00
2023-03-22T04:05:52.492Z,100.00
2023-03-22T04:08:19.313Z,100.00
2023-03-22T04:10:51.680Z,100.00
2023-03-22T04:13:21.578Z,100.00
2023-03-22T04:15:54.325Z,100.00
2023-03-22T04:18:21.774Z,100.00
2023-03-22T04:20:49.481Z,100.00
2023-03-22T04:23:16.673Z,100.00
2023-03-22T04:25:43.655Z,100.00
2023-03-22T04:28:10.423Z,100.00
2023-03-22T04:30:37.402Z,100.00
2023-03-22T04:33:08.475Z,100.00
2023-03-22T04:35:35.401Z,100.00
2023-03-22T04:38:02.375Z,100.00
2023-03-22T04:40:35.122Z,100.00
2023-03-22T04:43:04.095Z,100.00
2023-03-22T04:45:32.297Z,100.00
2023-03-22T04:48:00.578Z,100.00
2023-03-22T04:50:28.191Z,100.00
2023-03-22T04:52:55.103Z,100.00
2023-03-22T04:55:22.010Z,100.00
2023-03-22T04:57:49.026Z,100.00
2023-03-22T05:00:17.224Z,100.00
2023-03-22T05:02:44.127Z,100.00
2023-03-22T05:05:11.269Z,100.00
2023-03-22T05:07:39.210Z,100.00
2023-03-22T05:10:07.718Z,100.00
2023-03-22T05:12:34.505Z,100.00
2023-03-22T05:15:03.598Z,100.00
2023-03-22T05:17:30.548Z,100.00
2023-03-22T05:19:57.373Z,100.00
2023-03-22T05:22:24.411Z,100.00
2023-03-22T05:24:51.274Z,100.00
2023-03-22T05:27:31.145Z,100.00
2023-03-22T05:29:58.120Z,100.00
2023-03-22T05:32:25.600Z,100.00
2023-03-22T05:34:52.435Z,100.00
2023-03-22T05:37:21.004Z,100.00
2023-03-22T05:39:47.742Z,100.00
2023-03-22T05:42:14.673Z,100.00
2023-03-22T05:44:41.443Z,100.00
2023-03-22T05:47:08.175Z,100.00
2023-03-22T05:49:34.897Z,100.00
2023-03-22T05:52:04.226Z,100.00
2023-03-22T05:54:31.187Z,100.00
2023-03-22T05:56:57.969Z,100.00
2023-03-22T05:59:24.823Z,100.00
2023-03-22T06:01:51.852Z,100.00
2023-03-22T06:04:18.658Z,100.00
2023-03-22T06:06:45.518Z,100.00
2023-03-22T06:09:17.623Z,100.00
2023-03-22T06:11:44.547Z,100.00
2023-03-22T06:14:11.922Z,100.00
2023-03-22T06:16:38.862Z,100.00
2023-03-22T06:19:05.733Z,100.00
2023-03-22T06:21:32.596Z,100.00
2023-03-22T06:23:59.351Z,100.00
2023-03-22T06:26:26.182Z,100.00
2023-03-22T06:28:53.020Z,100.00
2023-03-22T06:31:19.884Z,100.00
2023-03-22T06:33:46.745Z,100.00
2023-03-22T06:36:13.511Z,100.00
2023-03-22T06:38:40.232Z,100.00
2023-03-22T06:41:07.132Z,100.00
2023-03-22T06:43:33.932Z,100.00
2023-03-22T06:46:00.946Z,100.00
2023-03-22T06:48:28.122Z,100.00
2023-03-22T06:50:55.103Z,100.00
2023-03-22T06:53:22.211Z,100.00
2023-03-22T06:55:49.027Z,100.00
2023-03-22T06:58:15.826Z,100.00
2023-03-22T07:00:42.814Z,100.00
2023-03-22T07:03:09.607Z,100.00
2023-03-22T07:05:36.436Z,100.00
2023-03-22T07:08:03.742Z,100.00
2023-03-22T07:10:30.623Z,100.00
2023-03-22T07:12:57.966Z,100.00
2023-03-22T07:15:24.855Z,100.00
2023-03-22T07:17:52.251Z,100.00
2023-03-22T07:20:20.154Z,100.00
2023-03-22T07:22:47.196Z,100.00
2023-03-22T07:25:13.986Z,100.00
2023-03-22T07:27:41.930Z,99.87
2023-03-22T07:30:12.752Z,99.36
2023-03-22T07:32:41.446Z,99.94
2023-03-22T07:35:08.778Z,98.33
2023-03-22T07:37:38.612Z,98.62
2023-03-22T07:40:06.888Z,98.74
2023-03-22T07:42:34.700Z,98.51
2023-03-22T07:45:03.815Z,97.48
2023-03-22T07:47:40.917Z,96.58
2023-03-22T07:50:12.366Z,95.72
2023-03-22T07:52:42.734Z,95.48
2023-03-22T07:55:13.279Z,93.99
2023-03-22T07:57:43.314Z,92.51
2023-03-22T08:00:11.938Z,90.90
2023-03-22T08:02:38.979Z,89.57
2023-03-22T08:05:07.217Z,86.62
2023-03-22T08:07:34.174Z,86.20
2023-03-22T08:10:01.010Z,84.93
2023-03-22T08:12:28.101Z,83.71
2023-03-22T08:14:55.016Z,80.27
2023-03-22T08:17:22.125Z,77.52
2023-03-22T08:19:49.895Z,75.54
2023-03-22T08:22:16.693Z,71.90
2023-03-22T08:24:43.557Z,68.92
2023-03-22T08:27:10.571Z,67.31
2023-03-22T08:29:37.407Z,67.06
2023-03-22T08:32:05.689Z,68.42
2023-03-22T08:34:37.496Z,63.15
2023-03-22T08:37:06.384Z,61.25
2023-03-22T08:39:34.094Z,61.49
2023-03-22T08:42:01.091Z,62.02
2023-03-22T08:44:28.219Z,62.13
2023-03-22T08:46:55.517Z,63.26
2023-03-22T08:49:23.211Z,60.08
2023-03-22T08:51:50.085Z,60.40
2023-03-22T08:54:17.210Z,63.42
2023-03-22T08:56:44.067Z,64.04
2023-03-22T08:59:11.057Z,57.47
2023-03-22T09:01:38.306Z,57.26
2023-03-22T09:04:05.787Z,60.77
2023-03-22T09:06:32.814Z,58.87
2023-03-22T09:09:00.100Z,57.91
2023-03-22T09:11:28.234Z,55.20
2023-03-22T09:13:55.309Z,51.67
2023-03-22T09:16:22.212Z,51.18
2023-03-22T09:18:49.041Z,54.33
2023-03-22T09:21:16.024Z,55.35
2023-03-22T09:23:47.602Z,53.55
2023-03-22T09:26:14.995Z,57.06
2023-03-22T09:28:42.011Z,54.15
2023-03-22T09:31:10.947Z,58.79
2023-03-22T09:33:39.721Z,58.23
2023-03-22T09:36:07.314Z,60.20
2023-03-22T09:38:35.581Z,62.05
2023-03-22T09:41:46.312Z,52.59
2023-03-22T09:44:24.411Z,50.42
2023-03-22T09:46:56.615Z,53.68
2023-03-22T09:49:30.492Z,54.05
2023-03-22T09:51:58.607Z,55.52
2023-03-22T09:54:39.021Z,52.54
2023-03-22T09:57:28.746Z,52.91
2023-03-22T10:00:14.486Z,49.02
2023-03-22T10:03:01.806Z,53.73
2023-03-22T10:05:53.096Z,52.06
2023-03-22T10:08:48.008Z,49.04
2023-03-22T10:11:34.478Z,48.67
2023-03-22T10:14:30.372Z,47.42
2023-03-22T10:17:05.488Z,45.61
2023-03-22T10:20:05.401Z,53.37
2023-03-22T10:22:40.986Z,50.56
2023-03-22T10:25:15.370Z,45.99
2023-03-22T10:27:42.942Z,48.88
2023-03-22T10:30:30.104Z,44.40
2023-03-22T10:33:33.530Z,50.59
2023-03-22T10:36:02.899Z,42.57
2023-03-22T10:38:34.326Z,44.40
2023-03-22T10:41:02.868Z,45.35
2023-03-22T10:43:39.105Z,41.34
2023-03-22T10:46:15.518Z,42.36
2023-03-22T10:48:47.000Z,41.96
2023-03-22T10:51:40.969Z,42.12
2023-03-22T10:54:14.959Z,44.81
2023-03-22T10:56:43.879Z,38.64
2023-03-22T10:59:49.836Z,39.25
2023-03-22T11:02:31.778Z,38.40
2023-03-22T11:05:03.785Z,40.69
2023-03-22T11:07:42.934Z,42.76
2023-03-22T11:10:09.729Z,42.11
2023-03-22T11:12:54.842Z,39.13
2023-03-22T11:15:28.686Z,42.27
2023-03-22T11:18:03.227Z,44.51
2023-03-22T11:20:32.837Z,38.84
2023-03-22T11:23:06.766Z,42.21
2023-03-22T11:25:37.943Z,36.56
2023-03-22T11:28:04.708Z,35.74
2023-03-22T11:30:33.860Z,35.78
2023-03-22T11:33:21.922Z,35.46
2023-03-22T11:35:56.743Z,34.15
2023-03-22T11:38:25.484Z,35.53
2023-03-22T11:41:01.973Z,34.65
2023-03-22T11:43:40.674Z,34.74
2023-03-22T11:46:09.206Z,34.99
2023-03-22T11:48:37.596Z,34.48
2023-03-22T11:51:17.048Z,34.45
2023-03-22T11:53:48.141Z,35.09
2023-03-22T11:56:28.805Z,36.69
2023-03-22T11:59:14.664Z,36.26
2023-03-22T12:01:58.565Z,35.91
2023-03-22T12:04:31.658Z,35.52
2023-03-22T12:07:04.095Z,38.54
2023-03-22T12:09:59.738Z,35.04
2023-03-22T12:12:32.842Z,33.55
2023-03-22T12:15:15.431Z,32.26
2023-03-22T12:17:53.072Z,32.02
2023-03-22T12:20:39.090Z,31.32
2023-03-22T12:23:21.818Z,29.82
2023-03-22T12:26:18.155Z,29.53
2023-03-22T12:29:04.828Z,30.08
2023-03-22T12:31:52.634Z,29.52
2023-03-22T12:34:32.343Z,29.41
2023-03-22T12:37:03.327Z,29.18
2023-03-22T12:39:38.990Z,29.06
2023-03-22T12:42:29.282Z,30.89
2023-03-22T12:45:06.228Z,31.27
2023-03-22T12:47:45.416Z,30.63
2023-03-22T12:50:23.082Z,30.25
2023-03-22T12:52:57.038Z,28.59
2023-03-22T12:55:34.021Z,28.32
2023-03-22T12:58:01.921Z,28.50
2023-03-22T13:00:42.327Z,28.61
2023-03-22T13:03:28.828Z,27.99
2023-03-22T13:06:27.164Z,27.94
2023-03-22T13:09:17.110Z,27.36
2023-03-22T13:12:17.386Z,26.27
2023-03-22T13:14:52.687Z,25.81
2023-03-22T13:17:22.469Z,25.73
2023-03-22T13:20:11.478Z,26.88
2023-03-22T13:22:38.592Z,27.05
2023-03-22T13:25:16.719Z,27.60
2023-03-22T13:27:57.235Z,26.96
2023-03-22T13:30:34.644Z,26.85
2023-03-22T13:33:10.316Z,26.02
2023-03-22T13:36:07.273Z,26.80
2023-03-22T13:38:43.048Z,27.29
2023-03-22T13:41:27.406Z,27.86
2023-03-22T13:44:01.643Z,27.68
2023-03-22T13:46:46.770Z,27.81
2023-03-22T13:49:48.950Z,28.24
2023-03-22T13:53:01.700Z,29.05
2023-03-22T13:55:46.809Z,29.62
2023-03-22T13:58:48.379Z,30.88
2023-03-22T14:01:47.364Z,31.82
2023-03-22T14:04:22.654Z,31.96
2023-03-22T14:06:59.433Z,32.39
2023-03-22T14:09:44.594Z,33.75
2023-03-22T14:12:54.640Z,34.73
2023-03-22T14:15:28.376Z,34.72
2023-03-22T14:18:29.845Z,34.71
2023-03-22T14:21:05.288Z,34.98
